Disclaimer

Please do not use the information listed here in-flight or in-navigation, as they are not provided to us by the airports but are provided by volunteers, so they might be outdated.

Search


Regions


Airport information page

Radio informations:
Tower (TWR) - 119.7 MHz

Airport informations:
Latitude: 35° 12' 27.81" N
Longitude: 000° 08' 49.71" E
Elevation: 1686 feet - 514 meters
Operating hours: Remarks
Operating agency: Civil government, landing fees and diplomatic clearance may be required
Timezone: UTC+1 - Dates notified by NOTAM
Fuel: Jet A1, without icing nhibitor.

Runway information:
08/26 - 5577 x 98 feet< - >1700 x 30 meters

Recent METARs:
DAOV 130200Z 00000KT CAVOK 05/04 Q1020
DAOV 130300Z 23002KT 9999 FEW026 05/04 Q1020
DAOV 130300Z 23002KT 9999 FEW026 05/04 Q1020

Airport on the map: